Time;durP1;ratioP1;P1;durP2;ratioP2;P2;SDS_P1;SDS_P2;PMS_P1;PMS_P2;Temp;Humidity;BMP_temperature;BMP_pressure;BME280_temperature;BME280_humidity;BME280_pressure;Samples;Min_cycle;Max_cycle;Signal;HPM_P1;HPM_P2
2024/03/11 00:00:17;;;;;;;5.53;2.30;;;-4.10;70.80;;;;;;4972677;28;20426;-78
2024/03/11 00:02:46;;;;;;;6.43;2.47;;;-4.00;71.00;;;;;;4975127;28;20019;-78
2024/03/11 00:05:15;;;;;;;6.55;2.88;;;-4.00;71.20;;;;;;4966473;28;20029;-78
2024/03/11 00:07:43;;;;;;;3.25;2.20;;;-4.00;71.20;;;;;;4975843;28;20085;-78
2024/03/11 00:10:12;;;;;;;4.47;2.53;;;-4.10;71.30;;;;;;4968489;28;20027;-79
2024/03/11 00:12:49;;;;;;;6.40;2.63;;;-4.10;71.40;;;;;;4972349;28;20089;-79
2024/03/11 00:15:15;;;;;;;4.18;2.33;;;-4.20;71.60;;;;;;4971313;28;20107;-79
2024/03/11 00:17:44;;;;;;;6.23;2.73;;;-4.30;71.80;;;;;;4975770;28;20129;-78
2024/03/11 00:20:10;;;;;;;5.30;2.42;;;-4.40;72.00;;;;;;4976305;28;20249;-77
2024/03/11 00:22:39;;;;;;;5.97;2.40;;;-4.50;72.30;;;;;;4974692;28;20114;-79
2024/03/11 00:25:06;;;;;;;3.42;2.42;;;-4.50;73.30;;;;;;4968578;28;20019;-79
2024/03/11 00:27:36;;;;;;;6.40;3.08;;;-4.60;72.90;;;;;;4978245;28;20473;-79
2024/03/11 00:30:04;;;;;;;5.18;3.13;;;-4.70;73.30;;;;;;4959960;28;20511;-79
2024/03/11 00:32:30;;;;;;;3.85;3.10;;;-4.70;73.50;;;;;;4974201;28;20039;-77
2024/03/11 00:34:56;;;;;;;4.78;2.70;;;-4.80;73.70;;;;;;4975392;28;20068;-79
2024/03/11 00:37:21;;;;;;;3.60;2.92;;;-4.80;74.30;;;;;;4975319;28;20027;-79
2024/03/11 00:39:47;;;;;;;4.90;3.08;;;-4.90;74.50;;;;;;4975148;28;20019;-77
2024/03/11 00:42:13;;;;;;;5.05;3.55;;;-4.90;75.00;;;;;;4975254;28;20027;-78
2024/03/11 00:44:39;;;;;;;9.15;3.60;;;-4.90;75.50;;;;;;4975132;28;20022;-80
2024/03/11 00:47:06;;;;;;;5.13;4.43;;;-4.90;76.00;;;;;;4975416;28;20031;-77
2024/03/11 00:49:32;;;;;;;9.23;2.80;;;-5.00;76.20;;;;;;4976161;28;20023;-76
2024/03/11 00:51:58;;;;;;;5.20;2.43;;;-5.00;76.30;;;;;;4974241;28;20073;-79
2024/03/11 00:54:24;;;;;;;5.07;2.60;;;-5.00;76.70;;;;;;4975096;28;20047;-78
2024/03/11 00:56:52;;;;;;;5.60;3.40;;;-5.00;77.00;;;;;;4973695;28;20027;-78
2024/03/11 00:59:18;;;;;;;;;;;-5.00;77.20;;;;;;4975391;28;20015;-78
2024/03/11 01:01:44;;;;;;;4.47;2.67;;;-4.90;77.20;;;;;;4971824;28;19972;-78
2024/03/11 01:04:10;;;;;;;9.40;4.77;;;-4.90;77.30;;;;;;4974845;28;20396;-79
2024/03/11 01:06:36;;;;;;;6.60;2.97;;;-4.80;77.50;;;;;;4973478;28;20023;-78
2024/03/11 01:09:03;;;;;;;6.10;3.33;;;-4.70;77.90;;;;;;4974764;28;20077;-79
2024/03/11 01:11:29;;;;;;;7.82;3.10;;;-4.60;78.00;;;;;;4974446;28;20070;-77
2024/03/11 01:13:55;;;;;;;5.45;3.10;;;-4.50;77.90;;;;;;4974621;28;20057;-79
2024/03/11 01:16:21;;;;;;;5.35;2.92;;;-4.50;77.90;;;;;;4973206;28;20484;-79
2024/03/11 01:18:47;;;;;;;5.05;2.90;;;-4.50;77.80;;;;;;4969657;28;20110;-78
2024/03/11 01:21:13;;;;;;;4.90;3.20;;;-4.40;77.80;;;;;;4971592;28;20046;-78
2024/03/11 01:23:40;;;;;;;8.75;3.03;;;-4.40;77.90;;;;;;4974575;28;20027;-79
2024/03/11 01:26:06;;;;;;;6.72;3.58;;;-4.40;77.90;;;;;;4974408;28;20511;-78
2024/03/11 01:28:33;;;;;;;4.35;2.70;;;-4.40;78.10;;;;;;4974721;28;20480;-78
2024/03/11 01:30:59;;;;;;;4.17;3.73;;;-4.50;78.20;;;;;;4967240;28;20028;-79
2024/03/11 01:33:24;;;;;;;5.93;3.13;;;-4.60;78.50;;;;;;4971113;28;20035;-79
2024/03/11 01:35:53;;;;;;;5.03;3.20;;;-4.60;78.80;;;;;;4967528;28;20065;-79
2024/03/11 01:38:19;;;;;;;4.32;3.45;;;-4.70;78.90;;;;;;4973911;28;20043;-79
2024/03/11 01:40:46;;;;;;;5.63;2.88;;;-4.70;79.20;;;;;;4972848;28;20086;-77
2024/03/11 01:43:14;;;;;;;9.70;2.90;;;-4.90;79.40;;;;;;4972686;28;20097;-79
2024/03/11 01:45:41;;;;;;;5.03;2.63;;;-4.90;79.80;;;;;;4974110;28;20094;-77
2024/03/11 01:48:09;;;;;;;4.20;2.78;;;-5.00;80.10;;;;;;4973896;28;20974;-77
2024/03/11 01:50:37;;;;;;;7.07;3.60;;;-5.10;80.20;;;;;;4972673;28;20029;-77
2024/03/11 01:53:04;;;;;;;7.15;3.95;;;-5.10;80.50;;;;;;4964757;28;20036;-78
2024/03/11 01:55:37;;;;;;;4.20;2.13;;;-5.20;80.80;;;;;;4973632;28;20029;-78
2024/03/11 01:58:03;;;;;;;5.72;3.55;;;-5.20;81.00;;;;;;4971541;28;20501;-79
2024/03/11 02:00:30;;;;;;;4.00;2.83;;;-5.30;81.40;;;;;;4973021;28;20073;-80
2024/03/11 02:02:56;;;;;;;4.25;2.72;;;-5.30;81.70;;;;;;4973592;28;20023;-78
2024/03/11 02:05:24;;;;;;;5.57;3.40;;;-5.30;82.10;;;;;;4972381;28;20030;-78
2024/03/11 02:07:59;;;;;;;5.32;2.90;;;-5.30;82.30;;;;;;4973026;28;20023;-79
2024/03/11 02:10:26;;;;;;;4.25;2.83;;;-5.40;82.40;;;;;;4973414;28;20050;-78
2024/03/11 02:12:52;;;;;;;6.10;3.33;;;-5.40;82.60;;;;;;4976077;28;20045;-78
2024/03/11 02:15:18;;;;;;;4.55;2.55;;;-5.50;82.80;;;;;;4973292;28;20114;-78
2024/03/11 02:17:45;;;;;;;8.20;3.00;;;-5.50;83.20;;;;;;4973520;28;20507;-77
2024/03/11 02:20:16;;;;;;;4.38;2.58;;;-5.50;83.40;;;;;;4973432;28;20050;-79
2024/03/11 02:22:50;;;;;;;6.88;3.40;;;-5.50;83.50;;;;;;4973399;28;20071;-80
2024/03/11 02:25:19;;;;;;;7.07;3.10;;;-5.60;83.90;;;;;;4973634;28;20101;-79
2024/03/11 02:27:46;;;;;;;6.78;3.13;;;-5.60;84.20;;;;;;4970215;28;20023;-78
2024/03/11 02:30:12;;;;;;;;;;;-5.60;84.40;;;;;;4970724;28;20031;-80
2024/03/11 02:32:40;;;;;;;5.45;2.88;;;-5.70;84.20;;;;;;4962129;28;20053;-78
2024/03/11 02:35:07;;;;;;;7.93;3.38;;;-5.70;84.40;;;;;;4986747;28;20099;-79
2024/03/11 02:37:33;;;;;;;4.03;2.55;;;-5.70;84.80;;;;;;4972917;28;20435;-78
2024/03/11 02:40:00;;;;;;;4.75;4.07;;;-5.70;85.10;;;;;;4974287;28;20106;-78
2024/03/11 02:42:30;;;;;;;3.80;2.80;;;-5.70;85.40;;;;;;4972131;28;20601;-77
2024/03/11 02:44:57;;;;;;;5.95;3.53;;;-5.70;85.70;;;;;;4969724;28;20038;-77
2024/03/11 02:47:23;;;;;;;6.10;4.03;;;-5.70;85.90;;;;;;4971913;28;20113;-78
2024/03/11 02:49:50;;;;;;;5.80;3.50;;;-5.70;86.10;;;;;;4973140;28;20113;-79
2024/03/11 02:52:17;;;;;;;5.68;4.00;;;-5.70;86.30;;;;;;4972707;28;20033;-79
2024/03/11 02:54:44;;;;;;;5.93;3.17;;;-5.70;86.40;;;;;;4967808;28;20026;-79
2024/03/11 02:57:10;;;;;;;6.93;4.18;;;-5.70;87.00;;;;;;4968662;28;20491;-79
2024/03/11 02:59:36;;;;;;;5.43;3.65;;;-5.70;87.20;;;;;;4970207;28;20031;-80
2024/03/11 03:02:01;;;;;;;7.60;3.67;;;-5.70;87.40;;;;;;4970295;28;20023;-79
2024/03/11 03:04:30;;;;;;;8.43;3.60;;;-5.70;87.60;;;;;;4972800;28;20027;-79
2024/03/11 03:06:59;;;;;;;5.95;2.85;;;-5.70;87.70;;;;;;4973161;28;20054;-79
2024/03/11 03:09:25;;;;;;;4.35;3.47;;;-5.70;87.90;;;;;;4971855;28;20050;-80
2024/03/11 03:11:51;;;;;;;7.85;4.07;;;-5.70;88.00;;;;;;4972648;28;20669;-78
2024/03/11 03:14:17;;;;;;;6.00;3.47;;;-5.70;88.30;;;;;;4969170;28;20396;-80
2024/03/11 03:16:43;;;;;;;5.82;3.53;;;-5.70;88.80;;;;;;4968929;28;20047;-78
2024/03/11 03:19:09;;;;;;;5.05;3.08;;;-5.70;89.00;;;;;;4972986;28;20019;-78
2024/03/11 03:21:35;;;;;;;9.13;4.78;;;-5.70;89.00;;;;;;4972809;28;20031;-79
2024/03/11 03:24:02;;;;;;;8.68;4.63;;;-5.80;89.30;;;;;;4972688;28;20057;-78
2024/03/11 03:26:28;;;;;;;12.85;4.28;;;-5.80;89.40;;;;;;4973347;28;20107;-79
2024/03/11 03:28:55;;;;;;;3.75;2.53;;;-5.80;89.50;;;;;;4976371;28;20023;-78
2024/03/11 03:31:23;;;;;;;8.60;4.38;;;-5.80;89.70;;;;;;4968642;28;20549;-78
2024/03/11 03:33:50;;;;;;;7.35;3.35;;;-5.80;89.80;;;;;;4975303;28;20043;-80
2024/03/11 03:36:18;;;;;;;7.00;3.13;;;-5.80;90.10;;;;;;4976636;28;20015;-78
2024/03/11 03:38:46;;;;;;;6.47;3.58;;;-5.80;90.20;;;;;;4971230;28;20022;-79
2024/03/11 03:41:12;;;;;;;7.15;6.15;;;-5.80;90.60;;;;;;4976419;28;20033;-79
2024/03/11 03:43:38;;;;;;;5.07;3.50;;;-5.90;90.40;;;;;;4975262;28;20031;-77
2024/03/11 03:46:05;;;;;;;5.85;3.50;;;-5.90;90.50;;;;;;4976479;28;20015;-79
2024/03/11 03:48:31;;;;;;;6.95;3.30;;;-5.90;90.60;;;;;;4972708;28;20035;-78
2024/03/11 03:50:57;;;;;;;10.02;3.97;;;-5.80;90.70;;;;;;4976145;28;20030;-77
2024/03/11 03:53:23;;;;;;;6.80;3.25;;;-5.80;90.90;;;;;;4976096;28;20066;-78
2024/03/11 03:55:53;;;;;;;9.65;3.63;;;-5.80;91.00;;;;;;4976300;28;20019;-80
2024/03/11 03:58:19;;;;;;;6.95;3.30;;;-5.80;91.10;;;;;;4978573;28;20023;-79
2024/03/11 04:00:44;;;;;;;7.88;3.70;;;-5.70;91.20;;;;;;4972210;28;20019;-78
2024/03/11 04:03:10;;;;;;;5.15;3.33;;;-5.60;91.30;;;;;;4968808;28;20027;-79
2024/03/11 04:05:36;;;;;;;7.18;3.78;;;-5.50;91.30;;;;;;4964897;28;20019;-78
2024/03/11 04:08:02;;;;;;;5.72;3.30;;;-5.40;91.30;;;;;;4976008;28;20424;-79
2024/03/11 04:10:29;;;;;;;6.20;3.10;;;-5.20;91.30;;;;;;4975841;28;20409;-78
2024/03/11 04:12:57;;;;;;;5.53;3.20;;;-5.10;91.20;;;;;;4971333;28;20456;-78
2024/03/11 04:15:24;;;;;;;5.13;3.35;;;-5.10;91.10;;;;;;4975756;28;20031;-79
2024/03/11 04:17:53;;;;;;;6.38;3.72;;;-5.00;91.10;;;;;;4975808;28;20101;-78
2024/03/11 04:20:27;;;;;;;8.23;3.30;;;-4.90;91.10;;;;;;4975770;28;20019;-79
2024/03/11 04:22:54;;;;;;;4.68;3.38;;;-4.80;91.00;;;;;;4974436;28;20467;-79
2024/03/11 04:25:23;;;;;;;8.27;3.42;;;-4.80;91.00;;;;;;4974637;28;20062;-79
2024/03/11 04:27:50;;;;;;;6.60;3.60;;;-4.70;90.90;;;;;;4963747;28;20038;-80
2024/03/11 04:30:19;;;;;;;;;;;-4.60;90.80;;;;;;4970857;28;20099;-78
2024/03/11 04:32:51;;;;;;;7.25;3.55;;;-4.60;90.80;;;;;;4969570;28;19914;-78
2024/03/11 04:35:19;;;;;;;6.43;3.47;;;-4.60;90.70;;;;;;4975535;28;20596;-79
2024/03/11 04:37:44;;;;;;;7.10;3.33;;;-4.50;90.90;;;;;;4975158;28;20027;-81
2024/03/11 04:40:12;;;;;;;6.13;3.50;;;-4.50;90.80;;;;;;4973937;28;20015;-80
2024/03/11 04:42:38;;;;;;;6.65;3.92;;;-4.50;90.80;;;;;;4975525;28;20596;-81
2024/03/11 04:45:05;;;;;;;7.15;3.75;;;-4.40;90.90;;;;;;4975034;28;20029;-79
2024/03/11 04:47:31;;;;;;;7.95;3.28;;;-4.40;91.00;;;;;;4973959;28;20038;-80
2024/03/11 04:49:57;;;;;;;6.47;3.50;;;-4.30;91.00;;;;;;4974895;28;20481;-78
2024/03/11 04:52:26;;;;;;;8.07;3.58;;;-4.30;90.90;;;;;;4974687;28;20035;-80
2024/03/11 04:54:52;;;;;;;6.38;2.65;;;-4.20;90.90;;;;;;4975221;28;20027;-80
2024/03/11 04:57:18;;;;;;;5.78;4.57;;;-4.20;90.80;;;;;;4974959;28;20015;-80
2024/03/11 04:59:43;;;;;;;5.35;3.17;;;-4.20;90.80;;;;;;4975022;28;20029;-79
2024/03/11 05:02:09;;;;;;;4.63;3.42;;;-4.10;90.90;;;;;;4966640;28;20023;-79
2024/03/11 05:04:36;;;;;;;6.97;3.50;;;-4.10;90.90;;;;;;4973779;28;20438;-80
2024/03/11 05:07:02;;;;;;;5.68;4.10;;;-4.00;91.00;;;;;;4975467;28;20033;-80
2024/03/11 05:09:28;;;;;;;7.90;4.30;;;-3.90;90.90;;;;;;4971081;28;20035;-79
2024/03/11 05:11:54;;;;;;;7.38;3.90;;;-3.70;90.90;;;;;;4974758;28;20027;-80
2024/03/11 05:14:30;;;;;;;5.75;4.78;;;-3.60;90.70;;;;;;4973104;28;20057;-81
2024/03/11 05:16:55;;;;;;;5.78;4.30;;;-3.50;90.60;;;;;;4974638;28;20106;-80
2024/03/11 05:19:21;;;;;;;8.20;4.93;;;-3.50;90.40;;;;;;4974586;28;20097;-81
2024/03/11 05:21:47;;;;;;;5.63;4.18;;;-3.40;90.40;;;;;;4971067;28;20388;-79
2024/03/11 05:24:13;;;;;;;5.80;4.40;;;-3.40;90.30;;;;;;4969010;28;20031;-78
2024/03/11 05:26:38;;;;;;;10.27;5.18;;;-3.40;90.30;;;;;;4967568;28;20086;-80
2024/03/11 05:29:04;;;;;;;8.02;4.30;;;-3.40;90.30;;;;;;4974339;28;20059;-81
2024/03/11 05:31:31;;;;;;;10.25;4.53;;;-3.30;90.40;;;;;;4974137;28;20473;-78
2024/03/11 05:33:57;;;;;;;8.95;5.18;;;-3.30;90.30;;;;;;4974750;28;20031;-80
2024/03/11 05:36:23;;;;;;;7.53;4.65;;;-3.30;90.30;;;;;;4961798;28;20106;-80
2024/03/11 05:38:49;;;;;;;13.10;5.28;;;-3.20;90.30;;;;;;4976329;28;20035;-77
2024/03/11 05:41:14;;;;;;;12.98;5.15;;;-3.10;90.10;;;;;;4977914;28;20057;-80
2024/03/11 05:43:41;;;;;;;8.52;5.10;;;-3.00;90.00;;;;;;4976260;28;20078;-81
2024/03/11 05:46:07;;;;;;;6.88;5.13;;;-2.90;90.00;;;;;;4964520;28;20031;-79
2024/03/11 05:48:34;;;;;;;12.52;5.68;;;-2.80;89.80;;;;;;4971482;28;20126;-80
2024/03/11 05:51:05;;;;;;;8.55;5.47;;;-2.60;89.30;;;;;;4973738;28;20038;-79
2024/03/11 05:53:34;;;;;;;9.93;5.15;;;-2.60;88.60;;;;;;4974031;28;20117;-79
2024/03/11 05:56:01;;;;;;;10.88;6.40;;;-2.60;89.00;;;;;;4967458;28;20445;-80
2024/03/11 05:58:28;;;;;;;11.93;6.38;;;-2.60;87.90;;;;;;4973279;28;20060;-77
2024/03/11 06:00:58;;;;;;;10.25;6.75;;;-2.70;87.80;;;;;;4968286;28;20110;-79
2024/03/11 06:03:24;;;;;;;14.32;6.80;;;-2.80;87.80;;;;;;4970712;28;20034;-81
2024/03/11 06:05:51;;;;;;;11.52;6.40;;;-3.00;87.80;;;;;;4971694;28;20362;-80
2024/03/11 06:08:18;;;;;;;;;;;-3.00;88.20;;;;;;4960733;28;20459;-80
2024/03/11 06:10:44;;;;;;;7.95;4.57;;;-3.10;88.10;;;;;;4973590;28;19992;-79
2024/03/11 06:13:11;;;;;;;14.45;9.48;;;-3.10;88.30;;;;;;4972265;28;20141;-80
2024/03/11 06:15:37;;;;;;;7.60;5.28;;;-3.10;88.60;;;;;;4972840;28;20101;-79
2024/03/11 06:18:04;;;;;;;8.60;6.05;;;-3.10;88.80;;;;;;4968630;28;20027;-79
2024/03/11 06:20:30;;;;;;;8.68;5.57;;;-3.10;88.70;;;;;;4973101;28;20085;-79
2024/03/11 06:22:56;;;;;;;8.93;5.40;;;-3.10;88.70;;;;;;4973443;28;20384;-78
2024/03/11 06:25:23;;;;;;;110.47;14.68;;;-3.00;88.70;;;;;;4971685;28;20110;-80
2024/03/11 06:27:50;;;;;;;10.25;5.18;;;-2.70;89.40;;;;;;4971826;28;20026;-80
2024/03/11 06:30:17;;;;;;;6.38;4.45;;;-2.30;88.60;;;;;;4973065;28;20034;-80
2024/03/11 06:32:48;;;;;;;7.63;4.72;;;-2.20;87.40;;;;;;4973208;28;20118;-78
2024/03/11 06:35:15;;;;;;;11.75;5.80;;;-2.10;86.10;;;;;;4967630;28;20027;-80
2024/03/11 06:37:45;;;;;;;7.15;4.55;;;-2.00;85.80;;;;;;4973108;28;20027;-80
2024/03/11 06:40:17;;;;;;;10.55;4.95;;;-1.90;85.50;;;;;;4973166;28;20023;-79
2024/03/11 06:42:48;;;;;;;7.85;5.35;;;-1.80;85.00;;;;;;4973506;28;20027;-80
2024/03/11 06:45:14;;;;;;;10.02;5.30;;;-1.80;84.60;;;;;;4971807;28;20023;-80
2024/03/11 06:47:41;;;;;;;8.52;5.68;;;-1.70;84.30;;;;;;4973125;28;20031;-79
2024/03/11 06:50:08;;;;;;;8.30;5.30;;;-1.60;83.90;;;;;;4959222;28;20541;-80
2024/03/11 06:52:34;;;;;;;9.40;5.37;;;-1.50;84.10;;;;;;4961871;28;20324;-81
2024/03/11 06:55:00;;;;;;;8.43;5.13;;;-1.30;83.90;;;;;;4968848;28;20257;-81
2024/03/11 06:57:26;;;;;;;7.90;3.92;;;-1.10;83.60;;;;;;4966802;28;20099;-81
2024/03/11 06:59:51;;;;;;;7.88;4.10;;;-0.90;82.90;;;;;;4971991;28;20472;-79
2024/03/11 07:02:20;;;;;;;9.63;5.05;;;-0.90;82.10;;;;;;4970636;28;20106;-79
2024/03/11 07:04:47;;;;;;;10.73;4.50;;;-0.70;81.40;;;;;;4970456;28;20022;-81
2024/03/11 07:07:13;;;;;;;9.03;4.03;;;-0.70;81.00;;;;;;4973240;28;21471;-81
2024/03/11 07:09:39;;;;;;;11.77;4.25;;;-0.70;80.80;;;;;;4972656;28;20292;-81
2024/03/11 07:12:08;;;;;;;7.68;4.55;;;-0.70;80.50;;;;;;4971512;28;20038;-81
2024/03/11 07:14:37;;;;;;;10.30;4.30;;;-0.60;80.20;;;;;;4971290;28;20051;-79
2024/03/11 07:17:04;;;;;;;11.63;4.90;;;-0.60;79.90;;;;;;4972545;28;20061;-81
2024/03/11 07:19:30;;;;;;;8.05;3.65;;;-0.60;79.80;;;;;;4972032;28;20031;-85
2024/03/11 07:21:57;;;;;;;6.10;2.92;;;-0.50;79.80;;;;;;4969307;28;20021;-81
2024/03/11 07:24:23;;;;;;;7.38;3.40;;;-0.50;79.50;;;;;;4975483;28;20034;-80
2024/03/11 07:26:49;;;;;;;6.47;3.50;;;-0.40;80.10;;;;;;4980776;28;20023;-79
2024/03/11 07:29:18;;;;;;;6.45;3.70;;;-0.30;79.20;;;;;;4972619;28;20113;-82
2024/03/11 07:31:46;;;;;;;7.38;3.90;;;-0.30;78.80;;;;;;4972465;28;20085;-82
2024/03/11 07:34:12;;;;;;;6.85;4.03;;;0.00;78.30;;;;;;4973885;28;20031;-79
2024/03/11 07:36:38;;;;;;;14.73;6.13;;;0.10;77.80;;;;;;4973012;28;20372;-81
2024/03/11 07:39:04;;;;;;;10.45;4.47;;;0.40;78.00;;;;;;4970711;28;20031;-81
2024/03/11 07:41:31;;;;;;;10.65;3.28;;;0.70;77.80;;;;;;4972477;28;20384;-81
2024/03/11 07:43:56;;;;;;;10.10;3.00;;;1.10;75.60;;;;;;4972428;28;20027;-82
2024/03/11 07:46:22;;;;;;;4.70;2.40;;;1.20;75.10;;;;;;4972900;28;20034;-80
2024/03/11 07:48:48;;;;;;;4.97;2.75;;;1.20;74.00;;;;;;4971223;28;20022;-81
2024/03/11 07:51:14;;;;;;;7.43;2.92;;;1.10;73.60;;;;;;4972536;28;20030;-82
2024/03/11 07:53:40;;;;;;;6.70;3.65;;;1.10;73.40;;;;;;4972359;28;20031;-81
2024/03/11 07:56:09;;;;;;;27.60;5.43;;;1.10;73.80;;;;;;4971273;28;20026;-80
2024/03/11 07:58:36;;;;;;;9.13;3.50;;;1.30;73.40;;;;;;4967156;28;20056;-80
2024/03/11 08:01:02;;;;;;;10.90;3.15;;;1.50;74.20;;;;;;4972987;28;20031;-83
2024/03/11 08:03:28;;;;;;;4.75;2.55;;;2.10;73.00;;;;;;4973155;28;20035;-82
2024/03/11 08:05:56;;;;;;;9.60;2.95;;;2.30;70.30;;;;;;4972330;28;20030;-84
2024/03/11 08:08:24;;;;;;;4.13;2.65;;;2.80;70.90;;;;;;4973143;28;20034;-82
2024/03/11 08:10:50;;;;;;;5.47;3.15;;;3.20;68.30;;;;;;4970029;28;20019;-84
2024/03/11 08:13:17;;;;;;;4.47;2.33;;;3.70;68.50;;;;;;4964569;28;20447;-82
2024/03/11 08:15:44;;;;;;;7.20;2.63;;;4.80;66.60;;;;;;4978989;28;20133;-82
2024/03/11 08:18:10;;;;;;;7.80;3.80;;;6.00;62.60;;;;;;4975908;28;20027;-85
2024/03/11 08:20:36;;;;;;;6.60;3.03;;;6.60;59.60;;;;;;4976813;28;20048;-84
2024/03/11 08:23:03;;;;;;;7.80;2.92;;;7.20;58.20;;;;;;4979191;28;20034;-84
2024/03/11 08:25:31;;;;;;;7.15;2.45;;;7.90;55.80;;;;;;4977164;28;20033;-82
2024/03/11 08:27:57;;;;;;;4.75;2.70;;;8.50;55.60;;;;;;4975474;28;20027;-82
2024/03/11 08:30:28;;;;;;;4.82;2.53;;;9.40;52.50;;;;;;4976262;28;20030;-82
2024/03/11 08:32:56;;;;;;;12.13;2.97;;;9.90;51.00;;;;;;4976565;28;20444;-84
2024/03/11 08:35:23;;;;;;;4.28;2.45;;;10.60;49.90;;;;;;4977546;28;20027;-81
2024/03/11 08:37:51;;;;;;;5.45;3.08;;;11.00;49.30;;;;;;4969488;28;20536;-82
2024/03/11 08:40:19;;;;;;;5.13;3.28;;;11.80;47.90;;;;;;4976630;28;20070;-84
2024/03/11 08:42:45;;;;;;;5.20;2.63;;;12.30;46.10;;;;;;4979580;28;20023;-82
2024/03/11 08:45:12;;;;;;;6.60;2.58;;;12.20;44.90;;;;;;4976161;28;20110;-84
2024/03/11 08:47:41;;;;;;;5.70;3.45;;;11.80;45.00;;;;;;4975857;28;20033;-83
2024/03/11 08:50:08;;;;;;;6.03;2.47;;;11.50;45.40;;;;;;4975598;28;20370;-86
2024/03/11 08:52:37;;;;;;;5.90;3.13;;;11.40;45.00;;;;;;4975815;28;20030;-82
2024/03/11 08:55:06;;;;;;;5.03;3.25;;;11.60;45.40;;;;;;4969248;28;20493;-84
2024/03/11 08:57:37;;;;;;;6.25;2.97;;;11.90;44.50;;;;;;4973209;28;20037;-83
2024/03/11 09:00:07;;;;;;;7.28;3.65;;;12.20;44.20;;;;;;4975030;28;20011;-82
2024/03/11 09:02:33;;;;;;;10.27;3.55;;;13.10;44.20;;;;;;4973156;28;20027;-83
2024/03/11 09:04:59;;;;;;;6.75;3.30;;;13.60;42.20;;;;;;4974317;28;20034;-84
2024/03/11 09:07:27;;;;;;;6.28;2.90;;;14.20;41.90;;;;;;4976470;28;20034;-84
2024/03/11 09:09:56;;;;;;;6.22;2.95;;;14.50;40.80;;;;;;4976571;28;20144;-81
2024/03/11 09:12:22;;;;;;;8.63;3.53;;;12.20;41.90;;;;;;4978945;28;20069;-84
2024/03/11 09:14:48;;;;;;;4.47;2.97;;;11.50;43.00;;;;;;4975661;28;20027;-84
2024/03/11 09:17:17;;;;;;;8.00;3.50;;;11.10;44.20;;;;;;4974436;28;20050;-83
2024/03/11 09:19:42;;;;;;;8.90;3.08;;;11.30;44.10;;;;;;4972703;28;20051;-83
2024/03/11 09:22:08;;;;;;;7.63;3.30;;;11.20;44.00;;;;;;4965289;28;20096;-83
2024/03/11 09:24:34;;;;;;;3.83;3.03;;;11.70;44.20;;;;;;4973484;28;20030;-81
2024/03/11 09:27:02;;;;;;;6.30;3.35;;;11.50;43.30;;;;;;4974706;28;20023;-83
2024/03/11 09:29:29;;;;;;;6.45;2.97;;;10.70;44.00;;;;;;4968581;28;20045;-83
2024/03/11 09:31:56;;;;;;;5.33;3.33;;;9.30;45.00;;;;;;4974917;28;20508;-82
2024/03/11 09:34:22;;;;;;;7.10;3.50;;;7.50;47.90;;;;;;4969165;28;20030;-84
2024/03/11 09:36:48;;;;;;;12.80;4.22;;;6.80;49.60;;;;;;4973021;28;20137;-84
2024/03/11 09:39:15;;;;;;;8.77;3.75;;;6.50;50.50;;;;;;4977624;28;20026;-86
2024/03/11 09:41:43;;;;;;;6.18;4.18;;;6.10;51.70;;;;;;4973739;28;20058;-82
2024/03/11 09:44:16;;;;;;;;;;;5.70;52.50;;;;;;4966137;28;20030;-83
2024/03/11 09:46:45;;;;;;;6.78;3.13;;;5.70;52.40;;;;;;4974244;28;20292;-81
2024/03/11 09:49:15;;;;;;;4.90;3.80;;;5.70;53.10;;;;;;4974587;28;20452;-83
2024/03/11 09:51:45;;;;;;;9.63;4.13;;;5.30;53.90;;;;;;4972836;28;20037;-84
2024/03/11 09:54:17;;;;;;;8.70;4.60;;;4.90;54.50;;;;;;4970179;28;20345;-82
2024/03/11 09:56:45;;;;;;;11.45;4.25;;;4.60;55.90;;;;;;4973900;28;20022;-85
2024/03/11 09:59:18;;;;;;;4.38;2.92;;;4.70;56.40;;;;;;4972748;28;20049;-86
2024/03/11 10:01:52;;;;;;;15.27;4.55;;;4.70;56.40;;;;;;4973654;28;20026;-85
2024/03/11 10:04:24;;;;;;;5.45;4.22;;;4.60;57.30;;;;;;4974212;28;20027;-85
2024/03/11 10:07:08;;;;;;;9.70;4.38;;;4.90;56.80;;;;;;4974909;28;20029;-86
2024/03/11 10:09:44;;;;;;;5.82;3.70;;;5.30;56.50;;;;;;4972239;28;20031;-86
2024/03/11 10:12:15;;;;;;;9.00;4.75;;;5.70;56.00;;;;;;4982739;28;20059;-86
2024/03/11 10:14:42;;;;;;;6.82;3.80;;;6.10;55.50;;;;;;4974724;28;20417;-85
2024/03/11 10:17:28;;;;;;;10.02;4.25;;;6.10;54.70;;;;;;4973309;28;20073;-86
2024/03/11 10:20:00;;;;;;;10.90;4.97;;;6.20;55.10;;;;;;4973977;28;20035;-86
2024/03/11 10:22:31;;;;;;;6.63;4.07;;;6.30;55.10;;;;;;4967335;28;20393;-86
2024/03/11 10:24:58;;;;;;;13.95;4.65;;;6.50;54.50;;;;;;4968615;28;20041;-85
2024/03/11 10:27:39;;;;;;;6.47;4.00;;;6.70;54.60;;;;;;4973708;28;20093;-86
2024/03/11 10:30:26;;;;;;;8.70;4.10;;;7.00;53.80;;;;;;4974278;28;20026;-83
2024/03/11 10:32:55;;;;;;;6.05;3.85;;;6.70;54.00;;;;;;4975316;28;20062;-84
2024/03/11 10:35:26;;;;;;;7.50;4.35;;;6.10;53.90;;;;;;4974855;28;20023;-86
2024/03/11 10:38:05;;;;;;;7.43;4.43;;;5.70;55.50;;;;;;4974430;28;20031;-85
2024/03/11 10:40:32;;;;;;;8.40;4.45;;;5.50;55.70;;;;;;4973961;28;20050;-86
2024/03/11 10:43:23;;;;;;;9.97;5.27;;;5.40;56.40;;;;;;4972982;28;20030;-86
2024/03/11 10:45:49;;;;;;;8.32;5.15;;;5.30;56.70;;;;;;4974245;28;20025;-86
2024/03/11 10:48:15;;;;;;;10.48;5.60;;;5.00;56.90;;;;;;4975047;28;20093;-86
2024/03/11 10:50:41;;;;;;;7.97;4.63;;;4.60;57.70;;;;;;4986340;28;20037;-84
2024/03/11 10:53:23;;;;;;;9.15;4.70;;;4.50;58.40;;;;;;4990100;28;20043;-86
2024/03/11 10:55:55;;;;;;;12.73;4.13;;;4.40;58.90;;;;;;4975257;28;20015;-85
2024/03/11 10:58:26;;;;;;;7.50;4.18;;;4.20;58.80;;;;;;4978487;28;20027;-83
2024/03/11 11:00:55;;;;;;;10.55;4.10;;;4.10;59.50;;;;;;4975932;28;20030;-86
2024/03/11 11:03:23;;;;;;;6.72;3.22;;;3.90;59.70;;;;;;4972629;28;20058;-84
2024/03/11 11:05:50;;;;;;;;;;;3.80;60.10;;;;;;4973845;28;20065;-85
2024/03/11 11:08:22;;;;;;;8.98;3.78;;;3.60;60.50;;;;;;4973666;28;20004;-87
2024/03/11 11:10:49;;;;;;;5.57;3.70;;;3.60;61.10;;;;;;4967806;28;20398;-84
2024/03/11 11:13:17;;;;;;;10.07;4.60;;;3.50;61.40;;;;;;4962616;28;20038;-84
2024/03/11 11:15:45;;;;;;;;;;;3.50;61.90;;;;;;4972319;28;20417;-85
2024/03/11 11:18:15;;;;;;;6.45;4.10;;;3.50;61.50;;;;;;4964982;28;19917;-82
2024/03/11 11:20:49;;;;;;;10.05;4.72;;;3.30;62.10;;;;;;4973255;28;20377;-85
2024/03/11 11:23:29;;;;;;;7.80;4.93;;;3.30;63.00;;;;;;4976543;28;20022;-86
2024/03/11 11:25:58;;;;;;;8.95;5.07;;;3.30;63.20;;;;;;4981022;28;20029;-87
2024/03/11 11:28:38;;;;;;;7.20;4.95;;;3.40;62.70;;;;;;4972040;28;20113;-86
2024/03/11 11:31:27;;;;;;;11.50;4.97;;;3.40;63.00;;;;;;4969091;28;20074;-87
2024/03/11 11:33:57;;;;;;;6.07;3.63;;;3.40;63.40;;;;;;4964887;28;20035;-85
2024/03/11 11:36:32;;;;;;;5.00;3.00;;;3.20;63.80;;;;;;4975135;28;20395;-88
2024/03/11 11:39:13;;;;;;;7.47;4.10;;;3.20;63.70;;;;;;4979395;28;20105;-85
2024/03/11 11:41:41;;;;;;;11.15;4.65;;;3.10;64.00;;;;;;4977132;28;20015;-86
2024/03/11 11:44:07;;;;;;;10.55;4.30;;;3.30;64.90;;;;;;4973136;28;20102;-85
2024/03/11 11:46:43;;;;;;;6.15;3.88;;;3.60;64.20;;;;;;4973644;28;20027;-87
2024/03/11 11:49:40;;;;;;;6.85;3.42;;;3.90;63.50;;;;;;4973015;28;20495;-86
2024/03/11 11:52:10;;;;;;;5.60;2.88;;;4.10;62.30;;;;;;4975689;28;20034;-85
2024/03/11 11:54:36;;;;;;;3.58;2.95;;;4.10;61.60;;;;;;4977403;28;20515;-85
2024/03/11 11:57:15;;;;;;;7.97;3.38;;;4.10;61.30;;;;;;4977297;28;20484;-83
2024/03/11 11:59:44;;;;;;;6.95;3.13;;;4.20;61.30;;;;;;4976807;28;20023;-86
2024/03/11 12:02:28;;;;;;;8.00;3.17;;;4.30;61.20;;;;;;4976811;28;20539;-85
2024/03/11 12:04:56;;;;;;;8.40;3.35;;;4.40;61.30;;;;;;4972428;28;20069;-82
2024/03/11 12:07:24;;;;;;;5.90;2.60;;;4.40;60.60;;;;;;4978246;28;20019;-87
2024/03/11 12:09:51;;;;;;;11.25;3.58;;;4.50;60.30;;;;;;4975235;28;20034;-85
2024/03/11 12:12:33;;;;;;;4.00;2.53;;;4.40;60.60;;;;;;4976650;28;20031;-89
2024/03/11 12:15:02;;;;;;;6.88;3.50;;;4.30;62.10;;;;;;4976941;28;20837;-88
2024/03/11 12:17:31;;;;;;;4.28;2.72;;;4.20;61.90;;;;;;4973475;28;20051;-83
2024/03/11 12:22:43;;;;;;;4.90;3.38;;;3.80;62.10;;;;;;4985441;28;20034;-88
2024/03/11 12:25:13;;;;;;;4.63;2.53;;;3.70;62.30;;;;;;4976959;28;20027;-87
2024/03/11 12:27:40;;;;;;;5.72;2.78;;;3.60;62.90;;;;;;4976867;28;20110;-83
2024/03/11 12:30:09;;;;;;;6.18;3.28;;;3.60;62.90;;;;;;4972421;28;20059;-84
2024/03/11 12:32:39;;;;;;;8.88;3.45;;;3.60;63.00;;;;;;4960794;28;20505;-86
2024/03/11 12:35:12;;;;;;;7.32;2.80;;;3.70;63.30;;;;;;4969716;28;20051;-85
2024/03/11 12:37:42;;;;;;;5.97;3.58;;;3.80;63.30;;;;;;4975933;28;20033;-83
2024/03/11 12:40:18;;;;;;;9.13;3.50;;;4.00;63.20;;;;;;4975871;28;20451;-82
2024/03/11 12:42:46;;;;;;;4.35;2.55;;;4.20;63.10;;;;;;4975952;28;20027;-83
2024/03/11 12:45:13;;;;;;;10.20;2.60;;;4.20;62.40;;;;;;4977742;28;20084;-82
2024/03/11 12:47:40;;;;;;;4.50;2.90;;;4.30;62.50;;;;;;4977830;28;20023;-81
2024/03/11 12:50:11;;;;;;;4.35;2.65;;;4.40;61.90;;;;;;4973313;28;20073;-82
2024/03/11 12:52:40;;;;;;;4.53;2.78;;;4.40;62.40;;;;;;4963723;28;20035;-82
2024/03/11 12:55:14;;;;;;;5.63;4.00;;;4.50;62.30;;;;;;4970759;28;20019;-81
2024/03/11 12:57:40;;;;;;;4.97;2.47;;;4.50;63.10;;;;;;4973080;28;20530;-81